Harrisburg, Arkansas
Current Conditions -  °F | °C
As of 11:53 AM on Saturday 20 Dec 2014 (Local Time) from KJBR Reporting Station
Overcast Overcast  
Wind Chill: 43°   Ceiling: 2800
Heat Index: 43°   Visibility: 10mi
Dew Point: 34°   Wind: 3mph
Humidity: 71%   Direction: 80°E
Pressure: 30.27"   Gusts: NA
Location:  35.56°N, 90.72°W
Report Text: KJBR 201753Z AUTO 08003KT 10SM BKN028 OVC033 06/01 A3027 RMK AO2 SLP253 60000 T00610011 10061 20033 58005
Loading
Personal Weather Stations






























Interactive Weather Map New forecast layout! Learn more

10-Day Weather Forecast

Advertisements
Track Severe Weather on mobile